Midway Middle School PTA Jingle Bell Run

Age Group Results

December 05, 2015


Results By Pro-Fit Event Services LLC - Belton, TX www.profiteventservices.com


Men: Top Finishers 1-19 20-29 30-39 40-49 50-59 60-99
Women: Top Finishers 0- 0 1-19 20-29 30-39 40-49 50-59 60-99

5K

Top

Female Open Winners

Place Name City Bib No Age Overall Total Time Pace
1 Isabel Valdez Mcgregor TX 70 16 7 22:18.8 7:12/M
Top

Male Open Winners

Place Name City Bib No Age Overall Total Time Pace
1 Peter Ferretter Woodway TX 61 16 1 17:49.1 5:45/M
Top

Female Top 7th Graders Winners

Place Name City Bib No Age Overall Total Time Pace
1 Hannah Bowden Woodway TX 26 12 28 30:04.8 9:44/M
Top

Male Top 7th Graders Winners

Place Name City Bib No Age Overall Total Time Pace
1 Eric Ochoa 82 11 4 20:45.4 6:42/M
Top

Female Top 8th Graders Winners

Place Name City Bib No Age Overall Total Time Pace
1 Emma Bell Woodway TX 73 13 18 27:27.6 8:52/M
Top

Male Top 8th Graders Winners

Place Name City Bib No Age Overall Total Time Pace
1 Brad Vroman Hewitt TX 18 13 3 20:36.1 6:39/M
Top

Female No Age Provided

Place Name City Bib No Age Overall Total Time Pace
1 Zoe Tripp 19 27 29:40.0 9:34/M
Top

Female 19 and Under

Place Name City Bib No Age Overall Total Time Pace
1 Shelby Lintelman Woodway TX 22 12 29 30:08.9 9:44/M
2 Kendi Filos Hewitt TX 25 10 33 30:51.2 9:57/M
3 Isabelle Madewell Hewitt TX 75 9 34 31:00.5 10:02/M
4 Amanda Kampermann Woodway TX 8 12 39 32:59.4 10:38/M
5 Crystin Tinney Woodway TX 50 12 40 32:59.4 10:38/M
6 Malaina Huff Mc Gregor TX 49 11 41 33:02.0 10:39/M
Top

Male 19 and Under

Place Name City Bib No Age Overall Total Time Pace
1 Sebastian Valdez Mcgregor TX 71 16 5 21:47.7 7:02/M
2 Shannen Newman Mcgregor TX 14 13 6 22:08.5 7:09/M
3 Sam Cox Hewitt TX 78 13 8 22:25.0 7:14/M
4 Emiliano Cardenas 85 13 9 22:35.8 7:18/M
5 Ian Lehrmann Woodway TX 56 11 10 23:03.1 7:26/M
6 Kade Miller Lorena TX 68 18 14 25:24.6 8:13/M
7 Lyatonga Filos Hewitt TX 24 10 17 27:15.5 8:47/M
8 Brayden Maggerd 86 12 55 39:02.2 12:36/M
9 Ashton Meyer Hewitt TX 64 11 58 43:45.2 14:09/M
10 Xavier Gonzalez Hewitt TX 66 6 69 54:48.7 17:44/M
Top

Female 20 to 29

Place Name City Bib No Age Overall Total Time Pace
1 Kate Holland Mesa AZ 41 23 13 25:13.0 8:08/M
2 Allyson Foster Waco TX 60 26 37 32:52.3 10:38/M
3 Jenny Whiteside West TX 30 26 43 34:39.6 11:12/M
4 Amber Minnick Woodwaywaco TX 44 23 51 38:02.0 12:16/M
5 Amanda Hinshaw Mesa AZ 42 29 62 47:30.0 15:19/M
6 Ashley Crane Waco TX 46 29 67 52:51.9 17:08/M
Top

Male 20 to 29

Place Name City Bib No Age Overall Total Time Pace
1 Mark Mather Hewitt TX 33 29 2 19:43.8 6:22/M
Top

Female 30 to 39

Place Name City Bib No Age Overall Total Time Pace
1 Kayla Cooper Woodway TX 55 32 24 28:45.9 9:17/M
2 Crystal Brown Woodway TX 16 32 30 30:22.0 9:50/M
3 Angie Cox Waco TX 58 31 32 30:22.7 9:50/M
4 Falon Reyes Waco TX 59 31 36 31:50.8 10:19/M
5 Katherine Chavez Hewitt TX 29 33 44 34:40.4 11:12/M
6 Lyndsey Shook 87 32 48 36:55.5 11:55/M
7 Annette Figueroa Hewitt TX 63 30 60 46:10.7 14:56/M
8 Dreamor Tierce Waco TX 45 32 66 52:51.4 17:07/M
Top

Male 30 to 39

Place Name City Bib No Age Overall Total Time Pace
1 Jeffory Brown Woodway TX 17 37 31 30:22.6 9:50/M
2 Mark Miller Lorena TX 47 32 35 31:47.6 10:16/M
3 Xavier Gonzalez Martinez Hewitt TX 67 32 68 54:46.9 17:44/M
Top

Female 40 to 49

Place Name City Bib No Age Overall Total Time Pace
1 Tonya Trepinski 81 44 11 24:03.7 7:45/M
2 Angela Rankin Woodway TX 57 44 21 28:04.5 9:05/M
3 Trina Derosier Hewitt TX 6 43 26 28:50.6 9:19/M
4 Bessie Kebaara Hewitt TX 23 44 38 32:58.3 10:38/M
5 Amanda Huff Mc Gregor TX 48 42 42 33:24.1 10:48/M
6 Cori Madewell Hewitt TX 76 41 46 35:46.0 11:34/M
7 Melora Roach Waco TX 1 43 47 36:50.9 11:53/M
8 Tina Little 84 47 50 37:16.6 12:03/M
9 Julie Andress Waco TX 10 45 53 38:07.7 12:19/M
10 Debbie Strouse Waco TX 11 43 54 38:24.0 12:23/M
11 Dena Parsons Chilton TX 27 43 57 40:41.2 13:10/M
12 Sherri Tucker Waco TX 52 43 59 45:16.3 14:40/M
13 Suzanne Levy 80 49 64 49:02.6 15:53/M
Top

Male 40 to 49

Place Name City Bib No Age Overall Total Time Pace
1 Wade Miller Lorena TX 36 47 12 24:44.9 7:59/M
2 David Marek Woodway TX 38 47 15 25:25.0 8:13/M
3 Ray Nazzario Woodway TX 31 48 16 27:08.1 8:47/M
4 Eric Ochoa 83 44 23 28:42.7 9:16/M
5 Calvin Madewell Hewitt TX 77 44 45 35:45.9 11:34/M
Top

Female 50 to 59

Place Name City Bib No Age Overall Total Time Pace
1 Dawn Palm Mesa AZ 39 50 49 37:06.0 11:58/M
2 Petra Ashleman Waco TX 12 57 52 38:04.3 12:18/M
3 Cathy Bernier Hewitt TX 62 59 61 47:17.7 15:19/M
4 Marie Dach Temple TX 20 50 63 49:02.5 15:52/M
Top

Male 50 to 59

Place Name City Bib No Age Overall Total Time Pace
1 Michael Bell Woodway TX 72 50 20 27:54.5 9:01/M
2 Chris Earles Hewitt TX 34 50 22 28:08.4 9:05/M
3 Brent Stiles Hewitt TX 13 58 56 40:39.1 13:10/M
Top

Female 60 and Over

Place Name City Bib No Age Overall Total Time Pace
1 Patsy Miller 54 68 65 51:09.3 16:33/M
Top

Male 60 and Over

Place Name City Bib No Age Overall Total Time Pace
1 Ralph Getman 74 62 19 27:45.6 8:57/M
2 Rudy Tisdale Waco TX 51 75 25 28:48.8 9:18/M